ADDS METAR Data INFO
IDs: Format: Raw Decoded Include TAF

Data at: 0919 UTC 13 Dec 2017

KLBL 130856Z AUTO 33010KT 290V360 10SM CLR 03/M10 A2997 RMK AO2 SLP142 T00331100 56015
KLBL 130756Z AUTO 25007KT 10SM CLR 01/M10 A2997 RMK AO2 SLP148 T00111100 FZRANO
KLBL 130656Z AUTO 26009KT 10SM CLR 04/M09 A2999 RMK AO2 SLP153 T00391094
KLBL 130556Z AUTO 26010KT 10SM CLR 04/M10 A3002 RMK AO2 SLP164 T00441100 10089 20017 401831072 56023
KLBL 130456Z AUTO 25008KT 10SM CLR 03/M11 A3004 RMK AO2 SLP176 T00331106
KLBL 130356Z AUTO 26009KT 10SM CLR 04/M11 A3006 RMK AO2 SLP186 T00391106
KLBL 130256Z AUTO 26008KT 10SM CLR 02/M12 A3009 RMK AO2 SLP209 T00171117 58014 FZRANO
KLBL 130156Z AUTO 24007KT 8SM CLR 03/M12 A3011 RMK AO2 SLP220 T00281117
KLBL 130056Z AUTO 22003KT 10SM CLR 06/M12 A3012 RMK AO2 SLP221 T00561117
KLBL 122356Z AUTO 24006KT 9SM CLR 09/M11 A3013 RMK AO2 SLP221 6//// T00941106 10183 20094 56021
KLBL 122256Z AUTO 23004KT 10SM CLR 16/M10 A3015 RMK AO2 SLP218 T01611100
KLBL 122156Z AUTO 25010KT 10SM CLR 18/M11 A3017 RMK AO2 SLP222 T01831111
KLBL 122056Z AUTO 23011KT 10SM CLR 18/M11 A3020 RMK AO2 SLP230 T01831111 56045
KLBL 121956Z AUTO 22010KT 10SM CLR 17/M11 A3023 RMK AO2 SLP242 T01671106
KLBL 121856Z AUTO 27009KT 10SM CLR 14/M11 A3029 RMK AO2 SLP267 T01441111
KLBL 121756Z AUTO 26009KT 10SM CLR 12/M11 A3035 RMK AO2 SLP287 T01171106 10117 21072 58020
KLBL 121656Z AUTO 25008KT 10SM CLR 08/M10 A3039 RMK AO2 SLP301 T00831100
KLBL 121556Z AUTO 25007KT 10SM CLR 05/M09 A3040 RMK AO2 SLP311 T00501089
KLBL 121456Z AUTO 27007KT 10SM CLR M03/M09 A3041 RMK AO2 SLP322 T10281094 56007 FZRANO
KLBL 121356Z AUTO 28008KT 10SM CLR M07/M11 A3041 RMK AO2 SLP324 T10671111 FZRANO
KLBL 121256Z AUTO 28010KT 10SM CLR M07/M11 A3042 RMK AO2 SLP321 T10671111 FZRANO
KLBL 121156Z AUTO 30008KT 10SM CLR M07/M11 A3043 RMK AO2 SLP327 7//// T10721111 11028 21072 56009 FZRANO
KLBL 121056Z AUTO 29007KT 10SM CLR M07/M11 A3044 RMK AO2 SLP321 T10671111 FZRANO
KLBL 120956Z AUTO 32005KT 10SM CLR M07/M11 A3045 RMK AO2 SLP321 T10671111 FZRANO
KLBL 120856Z AUTO 30006KT 10SM CLR M04/M10 A3046 RMK AO2 SLP321 T10441100 51002 FZRANO
KLBL 120756Z AUTO 31008KT 10SM CLR M03/M10 A3046 RMK AO2 SLP319 T10281100 FZRANO
KLBL 120656Z AUTO 30008KT 10SM CLR M04/M12 A3046 RMK AO2 SLP322 T10441117 FZRANO
KLBL 120556Z AUTO 31005KT 10SM CLR M04/M12 A3046 RMK AO2 SLP323 T10391117 10094 21039 401891039 51019 FZRANO
KLBL 120456Z AUTO 33009KT 10SM CLR M01/M11 A3044 RMK AO2 SLP315 T10111111 FZRANO
KLBL 120356Z AUTO 32009KT 10SM CLR M01/M12 A3042 RMK AO2 SLP313 T10111122 FZRANO
KLBL 120256Z AUTO 34009KT 10SM CLR 00/M13 A3040 RMK AO2 SLP312 T00001128 53035 FZRANO
KLBL 120156Z AUTO 32009KT 10SM CLR 03/M13 A3036 RMK AO2 SLP299 T00331133
KLBL 120056Z AUTO 35015KT 10SM CLR 08/M12 A3032 RMK AO2 SLP277 T00781122
KLBL 112356Z AUTO 36009KT 10SM CLR 07/M12 A3029 RMK AO2 SLP270 6//// T00721122 10189 20072 53021
KLBL 112256Z AUTO 36014KT 10SM CLR 15/M12 A3026 RMK AO2 SLP252 T01501117
KLBL 112156Z AUTO 35017G26KT 10SM CLR 17/M12 A3023 RMK AO2 PK WND 35027/2124 SLP238 T01721117